Time;durP1;ratioP1;P1;durP2;ratioP2;P2;SDS_P1;SDS_P2;PMS_P1;PMS_P2;Temp;Humidity;BMP_temperature;BMP_pressure;BME280_temperature;BME280_humidity;BME280_pressure;Samples;Min_cycle;Max_cycle;Signal;HPM_P1;HPM_P2
2021/06/14 02:47:35;;;;;;;7.32;4.85;;;13.80;94.90;;;;;;5263081;23;85173;-80
2021/06/14 02:50:05;;;;;;;5.93;4.78;;;13.50;94.80;;;;;;4873735;28;82555;-80
2021/06/14 02:52:33;;;;;;;4.90;4.40;;;14.00;95.30;;;;;;4858176;29;84003;-80
2021/06/14 02:55:04;;;;;;;5.28;4.78;;;14.50;96.60;;;;;;4874326;29;81985;-80
2021/06/14 02:57:32;;;;;;;7.00;5.25;;;13.20;97.60;;;;;;4874365;28;82428;-80
2021/06/14 02:59:58;;;;;;;8.15;5.53;;;13.90;96.80;;;;;;4875798;29;83175;-80
2021/06/14 03:02:25;;;;;;;5.88;5.03;;;14.60;99.10;;;;;;4874602;28;82190;-80
2021/06/14 03:04:52;;;;;;;6.85;5.28;;;13.90;97.70;;;;;;4870569;28;82334;-80
2021/06/14 03:07:24;;;;;;;5.57;4.97;;;14.20;99.90;;;;;;4873160;29;82568;-80
2021/06/14 03:09:51;;;;;;;5.93;4.95;;;14.50;99.90;;;;;;4854163;29;83410;-80
2021/06/14 03:12:18;;;;;;;5.93;5.07;;;14.20;99.60;;;;;;4870859;29;81555;-78
2021/06/14 03:14:45;;;;;;;5.05;4.55;;;13.30;99.90;;;;;;4876522;29;82006;-80
2021/06/14 03:17:12;;;;;;;6.63;5.03;;;13.50;99.30;;;;;;4871966;28;81935;-80
2021/06/14 03:19:39;;;;;;;5.10;4.60;;;14.50;99.90;;;;;;4871793;28;81718;-79
2021/06/14 03:22:06;;;;;;;5.00;4.47;;;12.80;99.90;;;;;;4872416;28;82584;-79
2021/06/14 03:24:33;;;;;;;5.35;4.43;;;13.70;98.80;;;;;;4865493;28;83103;-84
2021/06/14 03:27:00;;;;;;;5.38;4.32;;;13.60;99.00;;;;;;4871007;28;81800;-84
2021/06/14 03:29:27;;;;;;;4.93;4.43;;;13.50;99.50;;;;;;4861998;28;81797;-83
2021/06/14 03:31:53;;;;;;;4.70;4.30;;;13.50;99.50;;;;;;4872651;28;83098;-82
2021/06/14 03:34:22;;;;;;;4.78;4.35;;;13.50;99.30;;;;;;4859502;28;82206;-81
2021/06/14 03:36:48;;;;;;;5.60;4.85;;;13.60;99.50;;;;;;4860080;29;81839;-81
2021/06/14 03:39:16;;;;;;;5.38;4.63;;;13.50;99.80;;;;;;4859236;29;82037;-81
2021/06/14 03:41:50;;;;;;;6.10;4.63;;;13.40;99.90;;;;;;4868419;29;81979;-82
2021/06/14 03:44:17;;;;;;;7.68;5.32;;;13.40;99.90;;;;;;4865598;29;81944;-83
2021/06/14 03:46:44;;;;;;;5.22;4.72;;;13.40;99.90;;;;;;4872317;28;84369;-81
2021/06/14 03:49:10;;;;;;;6.05;4.90;;;13.40;99.90;;;;;;4859581;28;82162;-82
2021/06/14 03:51:36;;;;;;;8.50;5.40;;;13.30;99.90;;;;;;4864461;28;82433;-82
2021/06/14 03:54:02;;;;;;;5.10;4.38;;;13.30;99.90;;;;;;4873732;29;81963;-82
2021/06/14 03:56:31;;;;;;;4.63;4.20;;;13.30;99.90;;;;;;4871803;28;82917;-83
2021/06/14 03:58:57;;;;;;;5.15;4.63;;;13.30;99.90;;;;;;4860801;28;82515;-82
2021/06/14 04:01:23;;;;;;;6.30;4.35;;;13.40;99.90;;;;;;4867852;29;82665;-84
2021/06/14 04:06:33;;;;;;;4.60;4.20;;;13.40;99.90;;;;;;4880509;28;81810;-83
2021/06/14 04:08:59;;;;;;;4.85;4.38;;;13.50;99.90;;;;;;4866215;28;83189;-83
2021/06/14 04:11:25;;;;;;;6.28;5.53;;;13.60;99.90;;;;;;4864224;29;87149;-83
2021/06/14 04:13:51;;;;;;;5.47;4.57;;;13.70;99.90;;;;;;4871817;28;86990;-84
2021/06/14 04:16:20;;;;;;;5.60;4.43;;;13.70;99.90;;;;;;4873506;28;86949;-86
2021/06/14 04:18:47;;;;;;;5.43;4.93;;;13.80;99.90;;;;;;4857933;29;88601;-84
2021/06/14 04:21:13;;;;;;;6.38;4.97;;;13.90;99.90;;;;;;4863368;29;88175;-83
2021/06/14 04:23:39;;;;;;;4.95;4.47;;;14.00;99.90;;;;;;4860637;28;89382;-85
2021/06/14 04:26:06;;;;;;;5.55;4.80;;;14.10;99.90;;;;;;4868849;28;86686;-82
2021/06/14 04:28:32;;;;;;;5.90;5.25;;;13.80;99.90;;;;;;4872122;28;86891;-84
2021/06/14 04:30:58;;;;;;;6.00;4.20;;;14.20;99.90;;;;;;4870394;29;86971;-82
2021/06/14 04:33:24;;;;;;;6.20;4.75;;;14.30;99.90;;;;;;4870282;29;87136;-85
2021/06/14 04:35:49;;;;;;;5.65;4.80;;;14.40;99.90;;;;;;4865831;29;86731;-83
2021/06/14 04:38:15;;;;;;;9.70;4.88;;;14.50;99.90;;;;;;4867030;28;85863;-85
2021/06/14 04:40:40;;;;;;;6.40;4.70;;;14.50;99.90;;;;;;4862674;29;87069;-82
2021/06/14 04:43:06;;;;;;;5.93;4.32;;;14.60;99.90;;;;;;4877001;28;86907;-81
2021/06/14 04:45:32;;;;;;;6.75;5.43;;;14.70;99.90;;;;;;4868560;28;87874;-83
2021/06/14 04:47:58;;;;;;;5.13;4.63;;;14.80;99.90;;;;;;4858733;28;86885;-81
2021/06/14 04:50:23;;;;;;;8.85;5.30;;;14.90;99.80;;;;;;4866624;29;87616;-83
2021/06/14 04:52:49;;;;;;;6.55;5.20;;;15.00;99.50;;;;;;4861443;28;87082;-84
2021/06/14 04:55:15;;;;;;;8.75;5.18;;;15.00;99.30;;;;;;4869375;29;86873;-84
2021/06/14 04:57:41;;;;;;;7.28;4.75;;;15.20;99.00;;;;;;4878182;28;87062;-83
2021/06/14 05:00:08;;;;;;;5.70;5.10;;;15.20;98.60;;;;;;4866532;29;87727;-80
2021/06/14 05:05:55;;;;;;;7.63;4.93;;;15.40;98.70;;;;;;4871074;29;86670;-81
2021/06/14 05:08:21;;;;;;;7.65;5.78;;;15.50;98.40;;;;;;4873775;29;86762;-83
2021/06/14 05:10:48;;;;;;;5.40;4.90;;;15.60;98.40;;;;;;4861047;29;87760;-84
2021/06/14 05:13:15;;;;;;;7.03;5.35;;;15.60;97.90;;;;;;4854247;29;88585;-82
2021/06/14 05:15:41;;;;;;;7.38;5.28;;;15.70;97.50;;;;;;4858277;28;86805;-83
2021/06/14 05:18:07;;;;;;;6.50;5.20;;;15.80;97.10;;;;;;4859447;28;86862;-82
2021/06/14 05:20:34;;;;;;;12.82;5.72;;;15.80;97.00;;;;;;4864691;29;87317;-85
2021/06/14 05:23:00;;;;;;;6.53;5.18;;;15.80;97.40;;;;;;4870272;29;87165;-84
2021/06/14 05:25:26;;;;;;;9.05;5.50;;;15.90;97.60;;;;;;4863656;29;86448;-83
2021/06/14 05:27:53;;;;;;;7.60;5.88;;;16.00;97.80;;;;;;4870553;28;85980;-86
2021/06/14 05:30:20;;;;;;;9.48;6.18;;;16.10;97.90;;;;;;4866723;28;87209;-83
2021/06/14 05:32:46;;;;;;;9.13;6.13;;;16.20;97.40;;;;;;4868327;29;87963;-82
2021/06/14 05:35:12;;;;;;;7.68;5.70;;;16.30;97.70;;;;;;4865274;29;94258;-84
2021/06/14 05:37:38;;;;;;;7.95;6.50;;;16.30;97.90;;;;;;4863314;28;86902;-79
2021/06/14 05:40:06;;;;;;;8.77;6.28;;;16.40;97.70;;;;;;4871290;29;87320;-83
2021/06/14 05:42:32;;;;;;;7.93;6.55;;;16.50;97.90;;;;;;4863267;28;87270;-83
2021/06/14 05:44:58;;;;;;;8.00;6.60;;;16.50;97.40;;;;;;4864318;29;86969;-84
2021/06/14 05:47:24;;;;;;;7.38;6.20;;;16.50;97.80;;;;;;4865528;29;86973;-83
2021/06/14 05:49:50;;;;;;;7.10;5.72;;;16.60;97.80;;;;;;4863965;28;87246;-83
2021/06/14 05:52:16;;;;;;;8.32;7.53;;;16.40;98.50;;;;;;4869825;28;86369;-86
2021/06/14 05:54:41;;;;;;;7.80;5.90;;;16.80;97.00;;;;;;4869744;29;86540;-87
2021/06/14 05:57:08;;;;;;;6.50;5.78;;;16.90;96.10;;;;;;4870415;29;86947;-84
2021/06/14 05:59:34;;;;;;;8.98;5.60;;;17.00;95.60;;;;;;4863427;29;87974;-83
2021/06/14 06:01:59;;;;;;;5.78;5.20;;;17.10;95.90;;;;;;4858577;29;87032;-83
2021/06/14 06:04:26;;;;;;;7.20;4.88;;;17.20;95.70;;;;;;4868763;29;87391;-85
2021/06/14 06:06:51;;;;;;;5.53;5.03;;;17.30;96.00;;;;;;4868339;29;86917;-82
2021/06/14 06:09:17;;;;;;;7.65;5.00;;;17.50;95.30;;;;;;4867503;29;86753;-84
2021/06/14 06:11:43;;;;;;;6.70;5.70;;;17.50;93.70;;;;;;4867597;29;87009;-83
2021/06/14 06:14:09;;;;;;;5.68;5.05;;;17.60;93.20;;;;;;4870411;28;86888;-84
2021/06/14 06:16:34;;;;;;;7.72;6.65;;;17.30;94.90;;;;;;4870759;28;86297;-83
2021/06/14 06:19:00;;;;;;;7.82;6.50;;;17.70;93.30;;;;;;4864356;28;87200;-85
2021/06/14 06:21:26;;;;;;;5.75;4.85;;;17.80;93.10;;;;;;4866321;28;87417;-84
2021/06/14 06:23:51;;;;;;;5.40;4.78;;;17.90;91.20;;;;;;4858988;29;87744;-84
2021/06/14 06:26:17;;;;;;;6.68;5.13;;;18.00;91.40;;;;;;4862021;29;87092;-84
2021/06/14 06:28:43;;;;;;;4.38;3.97;;;18.00;91.60;;;;;;4861883;29;87178;-83
2021/06/14 06:31:08;;;;;;;9.18;5.30;;;18.10;91.30;;;;;;4870553;29;87657;-85
2021/06/14 06:33:35;;;;;;;4.70;4.10;;;18.20;90.00;;;;;;4867229;29;87103;-85
2021/06/14 06:36:01;;;;;;;5.13;4.00;;;18.20;90.10;;;;;;4864756;28;87099;-84
2021/06/14 06:38:27;;;;;;;4.78;4.22;;;18.30;90.00;;;;;;4864689;28;86801;-83
2021/06/14 06:40:53;;;;;;;7.07;5.47;;;;;;;;;;4872903;29;86245;-84
2021/06/14 06:43:19;;;;;;;6.82;5.35;;;18.20;89.00;;;;;;4864400;29;87099;-84
2021/06/14 06:45:45;;;;;;;13.52;4.70;;;18.60;89.60;;;;;;4877295;28;86857;-83
2021/06/14 06:48:11;;;;;;;4.93;4.30;;;18.80;90.20;;;;;;4872824;29;88248;-84
2021/06/14 06:50:37;;;;;;;5.97;5.00;;;18.80;90.50;;;;;;4868483;29;88009;-83
2021/06/14 06:53:03;;;;;;;5.57;4.90;;;19.00;90.20;;;;;;4864118;29;86679;-83
2021/06/14 06:55:29;;;;;;;5.38;4.50;;;19.00;88.80;;;;;;4870930;28;86783;-84
2021/06/14 06:57:56;;;;;;;4.90;4.40;;;19.20;89.70;;;;;;4874840;29;86504;-84
2021/06/14 07:00:23;;;;;;;6.97;6.38;;;19.50;89.50;;;;;;4874986;28;87147;-83
2021/06/14 07:02:49;;;;;;;7.30;5.40;;;19.30;88.80;;;;;;4868570;28;86403;-83
2021/06/14 07:05:15;;;;;;;6.90;6.20;;;19.40;85.10;;;;;;4886220;28;86828;-82
2021/06/14 07:07:43;;;;;;;5.15;4.65;;;19.30;85.20;;;;;;4885412;29;87234;-84
2021/06/14 07:10:10;;;;;;;5.25;4.75;;;19.50;84.10;;;;;;4885435;28;86677;-79
2021/06/14 07:12:37;;;;;;;5.95;5.45;;;19.60;86.70;;;;;;4885215;28;87112;-82
2021/06/14 07:15:07;;;;;;;7.10;4.78;;;19.70;86.20;;;;;;4878393;28;86371;-82
2021/06/14 07:17:33;;;;;;;6.13;5.63;;;19.40;83.90;;;;;;4883298;29;87293;-84
2021/06/14 07:19:59;;;;;;;5.47;4.50;;;20.00;83.70;;;;;;4875112;29;86236;-82
2021/06/14 07:22:25;;;;;;;6.28;4.18;;;20.10;85.60;;;;;;4876122;29;86706;-84
2021/06/14 07:24:51;;;;;;;5.38;4.05;;;20.30;86.90;;;;;;4873499;29;86591;-83
2021/06/14 07:27:16;;;;;;;5.00;3.55;;;20.40;87.20;;;;;;4860232;28;87219;-83
2021/06/14 07:29:42;;;;;;;5.43;5.00;;;;;;;;;;4873197;29;86354;-84
2021/06/14 07:32:08;;;;;;;5.72;5.22;;;20.50;83.70;;;;;;4871716;29;86563;-82
2021/06/14 07:34:34;;;;;;;7.22;5.30;;;21.20;85.40;;;;;;4864676;28;87006;-82
2021/06/14 07:37:00;;;;;;;6.72;5.22;;;21.20;83.90;;;;;;4860669;29;88215;-84
2021/06/14 07:39:26;;;;;;;6.82;3.92;;;20.80;84.00;;;;;;4855876;29;88876;-83
2021/06/14 07:41:52;;;;;;;4.63;4.05;;;21.00;83.80;;;;;;4870906;28;86807;-82
2021/06/14 07:44:18;;;;;;;6.57;4.03;;;21.00;83.60;;;;;;4869047;28;86969;-83
2021/06/14 07:46:44;;;;;;;6.55;5.65;;;;;;;;;;4868375;29;87748;-84
2021/06/14 07:49:09;;;;;;;5.20;3.78;;;21.10;81.20;;;;;;4871335;29;87497;-83
2021/06/14 07:51:35;;;;;;;7.93;4.18;;;21.20;81.80;;;;;;4868408;29;86846;-83
2021/06/14 07:54:01;;;;;;;6.35;5.60;;;21.40;82.60;;;;;;4872800;28;86303;-82
2021/06/14 07:56:27;;;;;;;5.38;4.10;;;21.40;82.90;;;;;;4867044;29;86946;-83
2021/06/14 07:58:53;;;;;;;6.07;3.80;;;21.60;81.30;;;;;;4869422;28;87229;-81
2021/06/14 08:01:18;;;;;;;5.65;4.28;;;21.60;81.90;;;;;;4867324;28;87999;-86
2021/06/14 08:03:47;;;;;;;4.93;4.15;;;21.70;80.20;;;;;;4871039;29;87035;-83
2021/06/14 08:06:13;;;;;;;6.28;5.68;;;22.00;77.50;;;;;;4869673;28;86836;-86
2021/06/14 08:08:39;;;;;;;6.00;4.00;;;21.90;77.60;;;;;;4866478;29;86955;-84
2021/06/14 08:11:07;;;;;;;6.82;4.05;;;22.00;77.80;;;;;;4868875;28;86832;-83
2021/06/14 08:13:33;;;;;;;5.97;4.68;;;22.00;77.00;;;;;;4852715;29;87639;-82
2021/06/14 08:15:59;;;;;;;5.05;4.50;;;22.10;78.10;;;;;;4869590;29;87136;-84
2021/06/14 08:26:11;;;;;;;7.45;4.72;;;22.30;80.40;;;;;;4871446;29;87907;-83
2021/06/14 08:28:37;;;;;;;7.03;6.22;;;22.90;80.40;;;;;;4871355;28;87088;-83
2021/06/14 08:31:04;;;;;;;6.70;5.35;;;22.50;80.40;;;;;;4862496;29;86853;-82
2021/06/14 08:33:31;;;;;;;6.90;5.30;;;22.50;81.20;;;;;;4870660;29;86805;-83
2021/06/14 08:35:56;;;;;;;5.22;4.72;;;22.50;80.90;;;;;;4870143;29;86939;-85
2021/06/14 08:38:22;;;;;;;4.75;4.35;;;22.60;79.20;;;;;;4867925;29;87998;-82
2021/06/14 08:40:48;;;;;;;6.97;6.22;;;22.70;79.10;;;;;;4870841;29;86644;-82
2021/06/14 08:43:13;;;;;;;8.23;5.97;;;23.30;79.20;;;;;;4868662;28;86213;-83
2021/06/14 08:45:42;;;;;;;5.57;4.40;;;22.90;79.60;;;;;;4872995;28;88165;-84
2021/06/14 08:48:10;;;;;;;8.00;6.35;;;23.30;78.40;;;;;;4872191;29;87053;-84
2021/06/14 08:50:38;;;;;;;5.70;5.20;;;23.30;73.50;;;;;;4873395;28;87747;-84
2021/06/14 08:53:04;;;;;;;6.53;5.93;;;24.00;73.00;;;;;;4871674;28;87011;-83
2021/06/14 08:55:30;;;;;;;6.60;6.00;;;24.10;71.40;;;;;;4864254;29;87473;-83
2021/06/14 08:57:57;;;;;;;4.93;4.45;;;23.70;71.60;;;;;;4855460;29;86807;-83
2021/06/14 09:00:28;;;;;;;6.88;4.35;;;23.90;71.50;;;;;;4863264;29;87115;-84
2021/06/14 09:02:54;;;;;;;5.85;5.40;;;24.60;70.40;;;;;;4872557;28;86585;-84
2021/06/14 09:05:22;;;;;;;5.20;4.40;;;24.50;70.80;;;;;;4865223;28;87678;-85
2021/06/14 09:07:49;;;;;;;6.53;5.97;;;25.10;65.60;;;;;;4870838;28;86925;-84
2021/06/14 09:10:37;;;;;;;6.97;4.30;;;24.90;65.70;;;;;;4867836;29;87027;-85
2021/06/14 09:13:18;;;;;;;4.50;4.10;;;25.10;66.10;;;;;;4870671;29;86880;-86
2021/06/14 09:15:46;;;;;;;6.38;5.85;;;26.10;63.90;;;;;;4871556;28;88600;-85
2021/06/14 09:18:26;;;;;;;4.05;3.63;;;26.10;64.30;;;;;;4873232;28;87152;-86
2021/06/14 09:21:18;;;;;;;5.82;5.38;;;27.30;59.30;;;;;;4872301;28;87014;-86
2021/06/14 09:24:05;;;;;;;6.55;4.15;;;27.20;58.20;;;;;;4880589;28;86946;-87
2021/06/14 09:26:32;;;;;;;4.13;3.75;;;27.90;57.70;;;;;;4864917;29;87149;-84
2021/06/14 09:29:10;;;;;;;5.80;5.28;;;28.90;58.50;;;;;;4871821;28;88137;-86
2021/06/14 09:32:03;;;;;;;5.57;5.18;;;30.10;52.20;;;;;;4872541;28;87369;-86
2021/06/14 09:34:38;;;;;;;7.93;6.38;;;31.50;51.30;;;;;;4872932;29;86201;-85
2021/06/14 09:37:08;;;;;;;4.15;3.80;;;32.30;48.00;;;;;;4871439;28;87775;-86
2021/06/14 09:39:39;;;;;;;5.68;5.28;;;33.70;46.30;;;;;;4860367;28;87159;-86
2021/06/14 09:42:20;;;;;;;6.60;6.00;;;34.80;42.90;;;;;;4871647;29;87829;-84
2021/06/14 09:44:48;;;;;;;5.88;5.47;;;35.70;41.00;;;;;;4871987;29;87056;-86
2021/06/14 09:47:15;;;;;;;6.30;5.90;;;36.80;40.90;;;;;;4871244;28;87285;-86
2021/06/14 09:49:53;;;;;;;4.60;4.18;;;37.40;38.60;;;;;;4872370;29;87342;-86
2021/06/14 09:52:23;;;;;;;6.32;5.78;;;38.50;37.20;;;;;;4867247;29;87044;-85
2021/06/14 09:54:49;;;;;;;6.43;5.95;;;38.70;37.10;;;;;;4869228;29;86763;-85
2021/06/14 09:57:28;;;;;;;4.43;4.13;;;39.80;36.00;;;;;;4874313;28;88120;-84
2021/06/14 10:00:16;;;;;;;6.28;5.78;;;41.00;33.50;;;;;;4867485;29;86266;-84
2021/06/14 10:02:42;;;;;;;7.00;6.50;;;41.00;32.90;;;;;;4867458;28;86687;-84
2021/06/14 10:05:42;;;;;;;4.32;4.03;;;41.40;32.00;;;;;;4868713;29;87086;-84
2021/06/14 10:08:08;;;;;;;6.18;5.78;;;42.60;32.00;;;;;;4869152;29;88471;-84
2021/06/14 10:10:39;;;;;;;6.75;6.10;;;43.30;31.70;;;;;;4868659;29;87446;-86
2021/06/14 10:13:06;;;;;;;4.97;4.57;;;43.80;31.10;;;;;;4868012;28;86872;-85
2021/06/14 10:15:37;;;;;;;4.72;4.40;;;44.00;30.00;;;;;;4863829;29;86966;-84
2021/06/14 10:18:11;;;;;;;7.30;6.80;;;44.00;30.50;;;;;;4863786;28;86982;-84
2021/06/14 10:20:38;;;;;;;4.72;4.43;;;43.90;30.10;;;;;;4864685;29;87121;-84
2021/06/14 10:23:05;;;;;;;5.03;4.70;;;44.60;30.80;;;;;;4860010;29;86907;-84
2021/06/14 10:25:31;;;;;;;5.20;4.88;;;45.00;29.80;;;;;;4860771;28;86501;-85
2021/06/14 10:27:58;;;;;;;7.47;6.88;;;44.90;30.00;;;;;;4865244;29;87030;-83
2021/06/14 10:30:25;;;;;;;7.97;7.32;;;45.10;29.80;;;;;;4864969;28;87067;-83
2021/06/14 10:32:52;;;;;;;5.85;5.35;;;45.40;30.00;;;;;;4865516;28;87903;-84
2021/06/14 10:35:20;;;;;;;5.28;4.90;;;46.00;29.70;;;;;;4864648;28;87719;-84
2021/06/14 10:37:53;;;;;;;5.20;4.80;;;46.10;29.10;;;;;;4863106;28;88562;-85
2021/06/14 10:40:23;;;;;;;5.50;5.10;;;46.20;28.80;;;;;;4858098;29;88704;-84
2021/06/14 10:42:49;;;;;;;7.50;7.10;;;46.10;28.50;;;;;;4866944;28;86654;-83
2021/06/14 10:45:20;;;;;;;7.90;7.40;;;45.70;29.20;;;;;;4866872;28;87031;-84
2021/06/14 10:47:47;;;;;;;7.68;7.15;;;45.10;29.40;;;;;;4865130;28;87271;-85
2021/06/14 10:50:20;;;;;;;7.35;6.75;;;45.70;28.70;;;;;;4872812;29;86209;-86
2021/06/14 10:52:47;;;;;;;7.68;7.18;;;46.20;29.30;;;;;;4873270;28;86727;-85
2021/06/14 10:55:16;;;;;;;7.25;6.85;;;46.30;29.10;;;;;;4873996;28;86743;-85
2021/06/14 10:57:43;;;;;;;7.47;7.03;;;46.80;28.70;;;;;;4862087;29;87949;-84
2021/06/14 11:00:34;;;;;;;5.57;5.18;;;47.10;28.60;;;;;;4869340;29;88889;-85
2021/06/14 11:03:03;;;;;;;5.35;4.95;;;46.90;27.90;;;;;;4872182;29;87067;-85
2021/06/14 11:05:44;;;;;;;5.97;5.57;;;47.30;28.40;;;;;;4872771;28;87070;-85
2021/06/14 11:08:21;;;;;;;8.00;7.32;;;47.50;28.00;;;;;;4870034;28;86917;-84
2021/06/14 11:11:00;;;;;;;7.88;7.25;;;47.20;28.50;;;;;;4863655;29;86968;-85
2021/06/14 11:13:26;;;;;;;7.40;7.00;;;47.10;28.00;;;;;;4865366;29;86973;-84
2021/06/14 11:15:57;;;;;;;8.07;7.50;;;47.60;28.30;;;;;;4864467;28;86349;-85
2021/06/14 11:18:32;;;;;;;7.72;7.32;;;48.20;28.10;;;;;;4861889;28;87644;-84
2021/06/14 11:21:14;;;;;;;5.60;5.10;;;48.30;27.50;;;;;;4867079;29;86853;-85
2021/06/14 11:23:41;;;;;;;7.55;7.05;;;48.70;27.20;;;;;;4862270;29;87841;-84
2021/06/14 11:26:10;;;;;;;5.57;5.13;;;49.00;27.70;;;;;;4866815;29;86931;-84
2021/06/14 11:28:39;;;;;;;;;;;49.20;27.00;;;;;;4862885;29;87754;-85
2021/06/14 11:31:16;;;;;;;7.80;7.40;;;48.60;27.30;;;;;;4863256;28;86764;-84
2021/06/14 11:33:43;;;;;;;7.88;7.38;;;48.30;27.10;;;;;;4870151;29;86790;-83
2021/06/14 11:36:29;;;;;;;7.72;7.15;;;48.40;27.20;;;;;;4869436;28;87024;-84
2021/06/14 11:38:59;;;;;;;8.30;7.90;;;49.00;27.20;;;;;;4870089;28;87341;-84
2021/06/14 11:41:30;;;;;;;7.70;7.30;;;48.10;27.10;;;;;;4868503;28;86172;-84
2021/06/14 11:44:19;;;;;;;7.45;6.85;;;47.50;27.70;;;;;;4869101;28;86934;-82
2021/06/14 11:46:45;;;;;;;;;;;47.50;27.80;;;;;;4869465;28;87088;-82
2021/06/14 11:49:11;;;;;;;7.45;7.05;;;47.90;27.70;;;;;;4860063;28;88100;-84
2021/06/14 11:51:37;;;;;;;7.78;7.15;;;47.40;27.40;;;;;;4862254;29;87345;-84
2021/06/14 11:54:04;;;;;;;7.45;7.00;;;46.70;27.30;;;;;;4867906;28;86744;-84
2021/06/14 11:56:35;;;;;;;7.03;6.65;;;46.10;27.80;;;;;;4874156;28;86760;-84
2021/06/14 11:59:01;;;;;;;7.13;6.72;;;45.40;27.80;;;;;;4862170;29;87171;-83
2021/06/14 12:01:36;;;;;;;7.03;6.63;;;46.00;28.40;;;;;;4867254;29;86955;-84
2021/06/14 12:04:09;;;;;;;7.50;6.90;;;46.50;27.90;;;;;;4868242;29;87030;-84
2021/06/14 12:06:47;;;;;;;7.13;6.72;;;46.60;27.10;;;;;;4868818;29;86449;-84
2021/06/14 12:09:14;;;;;;;5.25;4.93;;;46.30;27.20;;;;;;4868891;29;86985;-83
2021/06/14 12:11:41;;;;;;;6.63;6.28;;;45.50;27.90;;;;;;4868130;28;87599;-83
2021/06/14 12:14:25;;;;;;;6.72;6.32;;;45.80;28.50;;;;;;4867721;28;87798;-83
2021/06/14 12:16:57;;;;;;;7.20;6.68;;;46.60;27.30;;;;;;4856679;28;86962;-84
2021/06/14 12:19:24;;;;;;;6.88;6.47;;;47.20;27.50;;;;;;4867087;29;87493;-85
2021/06/14 12:21:54;;;;;;;7.18;6.53;;;47.30;27.60;;;;;;4863299;28;86807;-83
2021/06/14 12:24:20;;;;;;;7.20;6.80;;;47.50;27.00;;;;;;4868033;28;86819;-84
2021/06/14 12:26:46;;;;;;;6.80;6.50;;;;;;;;;;4868799;29;86686;-85
2021/06/14 12:29:22;;;;;;;6.95;6.53;;;47.10;26.70;;;;;;4857818;29;87171;-84
2021/06/14 12:32:06;;;;;;;7.10;6.70;;;46.60;26.90;;;;;;4866712;28;87453;-83
2021/06/14 12:34:34;;;;;;;8.15;7.40;;;46.60;26.90;;;;;;4868809;28;87172;-83
2021/06/14 12:37:05;;;;;;;6.67;6.20;;;46.10;26.90;;;;;;4868172;28;87582;-84
2021/06/14 12:39:31;;;;;;;6.80;6.50;;;45.20;27.70;;;;;;4867552;29;87999;-84
2021/06/14 12:41:57;;;;;;;7.40;6.80;;;45.20;27.70;;;;;;4869176;28;88628;-84
2021/06/14 12:44:23;;;;;;;4.80;4.40;;;45.30;28.00;;;;;;4860173;29;87029;-83
2021/06/14 12:46:49;;;;;;;6.70;6.20;;;44.80;27.50;;;;;;4867951;28;86641;-83
2021/06/14 12:49:21;;;;;;;6.57;6.10;;;45.00;27.40;;;;;;4868355;29;88154;-84
2021/06/14 12:51:48;;;;;;;6.75;6.35;;;45.00;27.20;;;;;;4865640;28;87227;-83
2021/06/14 12:54:14;;;;;;;6.75;6.35;;;44.50;27.50;;;;;;4867904;29;86967;-85
2021/06/14 12:56:41;;;;;;;6.50;6.10;;;44.70;27.50;;;;;;4868365;28;86191;-82
2021/06/14 12:59:08;;;;;;;6.80;6.32;;;44.90;27.60;;;;;;4856725;28;86619;-82
2021/06/14 13:01:37;;;;;;;6.35;5.90;;;44.80;27.00;;;;;;4867505;29;86909;-83
2021/06/14 13:04:03;;;;;;;6.35;5.90;;;44.90;27.60;;;;;;4868288;28;87918;-82
2021/06/14 13:06:32;;;;;;;6.28;5.93;;;44.60;27.00;;;;;;4856274;29;86898;-83
2021/06/14 13:09:03;;;;;;;6.82;6.53;;;44.40;27.40;;;;;;4866257;28;87476;-82
2021/06/14 13:11:40;;;;;;;6.60;6.13;;;44.10;26.80;;;;;;4869046;29;86906;-83
2021/06/14 13:14:06;;;;;;;6.50;6.15;;;43.70;27.10;;;;;;4867835;28;86946;-84
2021/06/14 13:16:32;;;;;;;6.40;5.90;;;43.00;27.50;;;;;;4868736;29;86880;-82
2021/06/14 13:18:59;;;;;;;6.10;5.78;;;42.50;28.20;;;;;;4868906;29;87097;-84
2021/06/14 13:21:30;;;;;;;5.95;5.57;;;42.40;28.70;;;;;;4868261;29;86410;-82
2021/06/14 13:24:18;;;;;;;5.90;5.60;;;42.60;28.60;;;;;;4868735;29;86948;-82
2021/06/14 13:26:46;;;;;;;4.35;4.05;;;42.70;28.60;;;;;;4853260;28;87015;-83
2021/06/14 13:29:14;;;;;;;5.70;5.40;;;42.50;27.50;;;;;;4863231;28;88214;-83
2021/06/14 13:31:42;;;;;;;6.00;5.70;;;42.10;28.00;;;;;;4870665;28;91664;-83
2021/06/14 13:34:23;;;;;;;5.40;5.20;;;42.10;28.60;;;;;;4866747;28;87341;-84
2021/06/14 13:36:53;;;;;;;6.15;5.60;;;41.70;28.50;;;;;;4860127;29;86812;-83
2021/06/14 13:39:23;;;;;;;6.05;5.75;;;41.90;28.60;;;;;;4860299;29;87040;-84
2021/06/14 13:42:00;;;;;;;6.18;5.40;;;41.90;27.90;;;;;;4871882;29;88064;-81
2021/06/14 13:44:26;;;;;;;5.82;5.43;;;41.80;27.80;;;;;;4870738;29;87019;-82
2021/06/14 13:46:53;;;;;;;5.72;5.38;;;41.30;28.30;;;;;;4868295;29;86339;-82
2021/06/14 13:49:25;;;;;;;5.90;5.50;;;40.90;28.60;;;;;;4871541;28;86995;-82
2021/06/14 13:52:02;;;;;;;5.82;5.43;;;40.50;29.10;;;;;;4860570;29;87421;-82
2021/06/14 13:54:28;;;;;;;5.80;5.40;;;39.90;29.20;;;;;;4871055;28;87784;-82
2021/06/14 13:56:54;;;;;;;5.20;4.95;;;39.40;28.90;;;;;;4871181;28;87512;-82
2021/06/14 13:59:26;;;;;;;5.43;5.13;;;39.10;29.70;;;;;;4868107;28;87573;-83
2021/06/14 14:01:58;;;;;;;5.63;5.25;;;38.90;29.80;;;;;;4867384;29;87057;-82
2021/06/14 14:04:30;;;;;;;5.70;5.40;;;38.70;29.40;;;;;;4863389;28;86871;-83
2021/06/14 14:06:58;;;;;;;5.68;5.18;;;38.20;30.90;;;;;;4861237;29;87028;-82
2021/06/14 14:09:27;;;;;;;5.88;5.55;;;38.00;30.80;;;;;;4867525;28;88021;-83
2021/06/14 14:11:53;;;;;;;6.10;5.60;;;37.90;31.10;;;;;;4859358;29;88037;-83
2021/06/14 14:14:23;;;;;;;5.47;5.18;;;37.80;30.80;;;;;;4862416;29;87230;-82
2021/06/14 14:16:51;;;;;;;5.72;5.32;;;37.60;30.10;;;;;;4870948;28;87068;-82
2021/06/14 14:19:22;;;;;;;5.32;5.03;;;37.20;31.30;;;;;;4871299;29;88702;-84
2021/06/14 14:21:49;;;;;;;5.45;5.00;;;37.10;31.10;;;;;;4867740;29;88345;-83
2021/06/14 14:24:15;;;;;;;5.32;5.03;;;37.00;32.20;;;;;;4868603;28;86897;-82
2021/06/14 14:26:43;;;;;;;5.50;5.15;;;36.70;31.90;;;;;;4870162;29;86866;-82
2021/06/14 14:29:14;;;;;;;5.43;5.13;;;36.40;31.80;;;;;;4871114;29;87158;-83
2021/06/14 14:31:43;;;;;;;5.15;4.85;;;36.20;32.00;;;;;;4867768;28;87333;-83
2021/06/14 14:34:12;;;;;;;5.20;4.87;;;36.20;32.60;;;;;;4870893;28;87627;-83
2021/06/14 14:36:50;;;;;;;5.28;4.95;;;36.00;32.90;;;;;;4871377;29;86302;-82
2021/06/14 14:39:25;;;;;;;5.30;5.00;;;35.80;32.40;;;;;;4870968;29;88245;-83
2021/06/14 14:41:52;;;;;;;9.60;4.90;;;35.60;32.00;;;;;;4871138;28;86921;-84
2021/06/14 14:44:21;;;;;;;4.93;4.53;;;35.20;32.10;;;;;;4871470;29;87436;-83
2021/06/14 14:46:47;;;;;;;5.90;4.93;;;34.80;32.70;;;;;;4870586;28;87119;-83
2021/06/14 14:49:14;;;;;;;5.10;4.65;;;34.60;33.40;;;;;;4871494;29;87211;-83
2021/06/14 14:51:41;;;;;;;4.57;4.28;;;34.40;33.50;;;;;;4868648;29;86906;-83
2021/06/14 14:54:15;;;;;;;3.40;3.10;;;34.20;34.00;;;;;;4870998;29;86651;-84
2021/06/14 14:56:41;;;;;;;4.78;4.38;;;34.10;34.50;;;;;;4871226;29;86873;-83
2021/06/14 14:59:07;;;;;;;5.30;4.93;;;33.80;33.60;;;;;;4869611;28;87458;-82
2021/06/14 15:01:35;;;;;;;4.75;4.30;;;33.80;34.50;;;;;;4870097;29;87989;-82
2021/06/14 15:04:01;;;;;;;5.07;4.78;;;33.80;34.20;;;;;;4871386;29;87043;-84
2021/06/14 15:06:27;;;;;;;4.97;4.60;;;33.90;33.50;;;;;;4871157;29;87090;-83
2021/06/14 15:08:53;;;;;;;4.63;4.38;;;33.60;33.90;;;;;;4870297;29;88650;-84
2021/06/14 15:11:20;;;;;;;4.97;4.57;;;33.50;34.50;;;;;;4870578;29;87963;-82
2021/06/14 15:13:46;;;;;;;4.65;4.43;;;33.40;34.40;;;;;;4870735;28;86900;-84
2021/06/14 15:16:12;;;;;;;4.82;4.50;;;33.20;34.20;;;;;;4868838;29;86871;-85
2021/06/14 15:18:38;;;;;;;4.90;4.50;;;33.10;35.50;;;;;;4871749;29;87785;-86
2021/06/14 15:21:04;;;;;;;4.53;4.32;;;32.90;34.40;;;;;;4872525;29;86797;-85
2021/06/14 15:23:31;;;;;;;6.00;4.78;;;32.80;34.70;;;;;;4872699;29;86855;-85
2021/06/14 15:25:57;;;;;;;4.55;4.35;;;32.80;35.50;;;;;;4873210;28;86328;-86
2021/06/14 15:28:24;;;;;;;4.63;4.20;;;32.70;35.80;;;;;;4872863;29;86999;-86
2021/06/14 15:30:55;;;;;;;5.20;4.70;;;32.60;35.30;;;;;;4866890;28;86930;-86
2021/06/14 15:33:22;;;;;;;4.80;4.38;;;32.50;35.20;;;;;;4872702;29;87849;-85
2021/06/14 15:35:47;;;;;;;5.10;4.70;;;32.40;35.80;;;;;;4876965;28;86489;-86
2021/06/14 15:38:13;;;;;;;4.82;4.40;;;32.30;35.60;;;;;;4876937;29;88258;-83
2021/06/14 15:40:52;;;;;;;4.57;4.28;;;32.00;35.70;;;;;;4880033;29;86939;-84
2021/06/14 15:43:21;;;;;;;5.72;4.35;;;31.70;36.20;;;;;;4875669;29;86913;-86
2021/06/14 15:45:48;;;;;;;4.50;4.20;;;31.60;36.30;;;;;;4868400;29;87069;-84
2021/06/14 15:48:14;;;;;;;4.47;4.25;;;31.40;37.60;;;;;;4872072;29;87137;-83
2021/06/14 15:50:42;;;;;;;4.60;4.30;;;31.30;37.20;;;;;;4867387;29;87308;-83
2021/06/14 15:53:09;;;;;;;4.55;4.25;;;31.40;38.20;;;;;;4872816;29;86844;-84
2021/06/14 15:55:35;;;;;;;5.47;4.47;;;31.30;37.20;;;;;;4878467;29;86563;-84